Time;durP1;ratioP1;P1;durP2;ratioP2;P2;SDS_P1;SDS_P2;PMS_P1;PMS_P2;Temp;Humidity;BMP_temperature;BMP_pressure;BME280_temperature;BME280_humidity;BME280_pressure;Samples;Min_cycle;Max_cycle;Signal;HPM_P1;HPM_P2
2021/08/08 00:02:06;;;;;;;1115.13;999.90;;;18.30;99.90;;;;;;5102938;28;20492;-88
2021/08/08 00:04:33;;;;;;;1123.23;999.90;;;18.30;99.90;;;;;;5111422;28;20452;-89
2021/08/08 00:07:00;;;;;;;1070.37;988.77;;;18.30;99.90;;;;;;5112365;28;20459;-90
2021/08/08 00:09:26;;;;;;;1108.47;999.90;;;18.30;99.90;;;;;;5095572;28;20453;-89
2021/08/08 00:11:53;;;;;;;1091.77;999.90;;;18.30;99.90;;;;;;5096902;28;20450;-90
2021/08/08 00:14:22;;;;;;;1120.93;995.27;;;18.30;99.90;;;;;;5092813;28;20491;-88
2021/08/08 00:16:49;;;;;;;1999.90;999.90;;;18.20;99.90;;;;;;5093818;28;20841;-88
2021/08/08 00:19:16;;;;;;;1098.40;990.90;;;18.00;99.90;;;;;;5097370;28;20513;-91
2021/08/08 00:21:42;;;;;;;1248.03;865.23;;;17.90;99.90;;;;;;5098760;28;20453;-88
2021/08/08 00:24:10;;;;;;;1999.90;999.90;;;17.70;99.90;;;;;;5129540;28;20433;-88
2021/08/08 00:26:37;;;;;;;1999.90;999.90;;;17.60;99.90;;;;;;5123775;28;20470;-89
2021/08/08 00:29:04;;;;;;;1999.90;999.90;;;17.50;99.90;;;;;;5115456;28;20455;-90
2021/08/08 00:31:32;;;;;;;1999.90;999.90;;;17.50;99.90;;;;;;5115350;28;20532;-88
2021/08/08 00:33:59;;;;;;;1999.90;999.90;;;17.50;99.90;;;;;;5115021;28;20482;-87
2021/08/08 00:36:26;;;;;;;1621.90;935.03;;;17.40;99.90;;;;;;5112308;28;20483;-90
2021/08/08 00:38:56;;;;;;;971.27;903.10;;;17.40;99.90;;;;;;5094353;28;20796;-90
2021/08/08 00:41:23;;;;;;;1466.77;787.13;;;17.40;99.90;;;;;;5094726;28;20504;-91
2021/08/08 00:43:50;;;;;;;1999.90;999.90;;;17.40;99.90;;;;;;5095391;28;20551;-91
2021/08/08 00:46:17;;;;;;;1999.90;999.90;;;17.40;99.90;;;;;;5108711;28;20486;-89
2021/08/08 00:48:45;;;;;;;1596.00;909.80;;;17.50;99.90;;;;;;5092116;28;20531;-90
2021/08/08 00:51:12;;;;;;;1999.90;999.90;;;17.40;99.90;;;;;;5074225;28;20451;-86
2021/08/08 00:53:39;;;;;;;1122.10;754.23;;;17.40;99.90;;;;;;5081336;28;20450;-88
2021/08/08 00:56:06;;;;;;;1999.90;999.90;;;17.30;99.90;;;;;;5094233;28;20544;-90
2021/08/08 00:58:33;;;;;;;870.53;809.60;;;17.30;99.90;;;;;;5109533;28;20463;-89
2021/08/08 01:01:03;;;;;;;1153.57;783.57;;;17.40;99.90;;;;;;5114761;28;20454;-88
2021/08/08 01:03:31;;;;;;;848.67;792.73;;;17.40;99.90;;;;;;5114467;28;20457;-89
2021/08/08 01:06:08;;;;;;;1999.90;999.90;;;17.40;99.90;;;;;;5114353;28;20992;-88
2021/08/08 01:08:41;;;;;;;1277.67;901.63;;;17.40;99.90;;;;;;5114120;28;20451;-89
2021/08/08 01:11:11;;;;;;;901.80;845.17;;;17.40;99.90;;;;;;5114418;28;20446;-87
2021/08/08 01:13:40;;;;;;;869.57;810.67;;;17.40;99.90;;;;;;5107649;28;20983;-89
2021/08/08 01:16:09;;;;;;;895.07;838.10;;;17.40;99.90;;;;;;5093638;28;20489;-86
2021/08/08 01:18:36;;;;;;;902.67;843.27;;;17.40;99.90;;;;;;5102841;28;20593;-88
2021/08/08 01:21:05;;;;;;;848.73;793.87;;;17.40;99.90;;;;;;5112133;28;20457;-89
2021/08/08 01:23:34;;;;;;;952.47;892.67;;;17.40;99.90;;;;;;5111561;28;20510;-88
2021/08/08 01:26:03;;;;;;;1065.77;986.83;;;17.40;99.90;;;;;;5088209;28;20549;-87
2021/08/08 01:28:30;;;;;;;908.20;849.80;;;17.50;99.90;;;;;;5093238;28;20456;-88
2021/08/08 01:30:57;;;;;;;905.10;846.30;;;17.40;99.90;;;;;;5093090;28;20456;-89
2021/08/08 01:33:24;;;;;;;963.57;898.73;;;17.40;99.90;;;;;;5093101;28;20457;-88
2021/08/08 01:35:51;;;;;;;873.63;818.47;;;17.50;99.90;;;;;;5093464;28;20489;-88
2021/08/08 01:38:19;;;;;;;916.37;857.20;;;17.40;99.90;;;;;;5093386;28;20526;-87
2021/08/08 01:40:52;;;;;;;860.80;800.67;;;17.40;99.90;;;;;;5093382;28;20480;-90
2021/08/08 01:43:25;;;;;;;894.73;839.43;;;17.40;99.90;;;;;;5096013;28;20458;-88
2021/08/08 01:45:55;;;;;;;793.10;743.30;;;17.50;99.90;;;;;;5113850;28;20480;-88
2021/08/08 01:48:24;;;;;;;880.70;825.43;;;17.40;99.90;;;;;;5107094;28;20542;-87
2021/08/08 01:50:50;;;;;;;834.47;783.53;;;17.40;99.90;;;;;;5094952;28;20453;-89
2021/08/08 01:53:17;;;;;;;845.23;792.03;;;17.50;99.90;;;;;;5092720;28;20460;-86
2021/08/08 01:55:44;;;;;;;882.03;827.93;;;17.40;99.90;;;;;;5092183;28;20496;-88
2021/08/08 01:58:11;;;;;;;769.73;722.57;;;17.40;99.90;;;;;;5092442;28;20450;-87
2021/08/08 02:00:39;;;;;;;915.40;854.73;;;17.40;99.90;;;;;;5093303;28;20455;-87
2021/08/08 02:03:06;;;;;;;847.40;795.67;;;17.40;99.90;;;;;;5092881;28;20458;-87
2021/08/08 02:05:34;;;;;;;781.23;732.07;;;17.40;99.90;;;;;;5092469;28;20558;-88
2021/08/08 02:08:00;;;;;;;862.53;808.47;;;17.50;99.90;;;;;;5092725;28;20937;-87
2021/08/08 02:10:27;;;;;;;803.67;754.97;;;17.50;99.90;;;;;;5093558;28;20451;-87
2021/08/08 02:12:54;;;;;;;851.97;801.03;;;17.50;99.90;;;;;;5113243;28;20457;-88
2021/08/08 02:15:21;;;;;;;891.20;835.13;;;17.40;99.90;;;;;;5113718;28;20490;-88
2021/08/08 02:17:49;;;;;;;809.50;758.73;;;17.50;99.90;;;;;;5119743;28;20446;-87
2021/08/08 02:20:17;;;;;;;843.23;791.10;;;17.50;99.90;;;;;;5134597;28;20935;-88
2021/08/08 02:22:45;;;;;;;910.43;852.63;;;17.50;99.90;;;;;;5092452;28;20456;-88
2021/08/08 02:25:12;;;;;;;877.67;822.43;;;17.50;99.90;;;;;;5092261;28;20470;-87
2021/08/08 02:27:39;;;;;;;818.80;769.00;;;17.50;99.90;;;;;;5092558;28;20446;-89
2021/08/08 02:30:08;;;;;;;836.93;786.47;;;17.50;99.90;;;;;;5110096;28;20449;-89
2021/08/08 02:32:34;;;;;;;812.20;762.93;;;17.50;99.90;;;;;;5136685;28;20437;-89
2021/08/08 02:35:03;;;;;;;1094.43;907.57;;;17.50;99.90;;;;;;5138386;28;20568;-87
2021/08/08 02:37:30;;;;;;;796.60;748.60;;;17.50;99.90;;;;;;5115642;28;20440;-87
2021/08/08 02:39:57;;;;;;;825.50;774.93;;;17.40;99.90;;;;;;5112280;28;20455;-87
2021/08/08 02:42:24;;;;;;;776.23;727.37;;;17.50;99.90;;;;;;5096538;28;20448;-86
2021/08/08 02:44:50;;;;;;;834.83;782.10;;;17.40;99.90;;;;;;5109240;28;20527;-89
2021/08/08 02:47:17;;;;;;;796.43;746.80;;;17.40;99.90;;;;;;5112726;28;20442;-89
2021/08/08 02:49:44;;;;;;;823.37;770.87;;;17.30;99.90;;;;;;5087158;28;20534;-88
2021/08/08 02:52:12;;;;;;;741.30;698.47;;;17.40;99.90;;;;;;5101776;28;20458;-87
2021/08/08 02:54:39;;;;;;;759.30;714.13;;;17.40;99.90;;;;;;5112700;28;20493;-89
2021/08/08 02:57:06;;;;;;;801.63;752.43;;;17.40;99.90;;;;;;5112437;28;20557;-87
2021/08/08 02:59:35;;;;;;;894.07;840.63;;;17.40;99.90;;;;;;5112118;28;20457;-86
2021/08/08 03:02:02;;;;;;;795.93;747.00;;;17.40;99.90;;;;;;5098720;28;20532;-88
2021/08/08 03:04:29;;;;;;;764.63;719.00;;;17.40;99.90;;;;;;5092141;28;20452;-90
2021/08/08 03:06:56;;;;;;;842.07;786.53;;;17.40;99.90;;;;;;5092110;28;20450;-88
2021/08/08 03:09:24;;;;;;;723.17;679.23;;;17.40;99.90;;;;;;5091988;28;20461;-88
2021/08/08 03:11:51;;;;;;;669.20;629.97;;;17.40;99.90;;;;;;5103811;28;20446;-88
2021/08/08 03:14:19;;;;;;;735.53;693.77;;;17.30;99.90;;;;;;5112489;28;20453;-89
2021/08/08 03:16:47;;;;;;;825.53;775.57;;;17.30;99.90;;;;;;5112189;28;20478;-88
2021/08/08 03:19:15;;;;;;;692.93;651.23;;;17.40;99.90;;;;;;5112427;28;20455;-91
2021/08/08 03:21:42;;;;;;;675.67;637.20;;;17.30;99.90;;;;;;5101567;28;20452;-87
2021/08/08 03:24:09;;;;;;;705.33;663.93;;;17.30;99.90;;;;;;5091548;28;20967;-88
2021/08/08 03:26:37;;;;;;;668.83;629.70;;;17.30;99.90;;;;;;5091897;28;20471;-87
2021/08/08 03:29:04;;;;;;;733.30;690.00;;;17.30;99.90;;;;;;5091322;28;20861;-88
2021/08/08 03:31:31;;;;;;;712.47;672.63;;;17.30;99.90;;;;;;5090880;28;20460;-86
2021/08/08 03:33:58;;;;;;;700.07;657.90;;;17.30;99.90;;;;;;5092391;28;20437;-87
2021/08/08 03:36:24;;;;;;;703.30;662.63;;;17.30;99.90;;;;;;5091418;28;20489;-85
2021/08/08 03:38:51;;;;;;;813.27;762.63;;;17.30;99.90;;;;;;5092324;28;20449;-87
2021/08/08 03:41:18;;;;;;;709.47;668.83;;;17.30;99.90;;;;;;5087801;28;20478;-86
2021/08/08 03:43:47;;;;;;;692.40;651.10;;;17.30;99.90;;;;;;5087451;28;20951;-87
2021/08/08 03:46:13;;;;;;;671.30;632.67;;;17.30;99.90;;;;;;5091198;28;20474;-89
2021/08/08 03:48:40;;;;;;;596.63;563.87;;;17.40;99.90;;;;;;5091091;28;20449;-86
2021/08/08 03:51:07;;;;;;;625.53;589.83;;;17.30;99.90;;;;;;5099478;28;20489;-85
2021/08/08 03:53:34;;;;;;;646.20;609.80;;;17.40;99.90;;;;;;5116135;28;20454;-89
2021/08/08 03:56:01;;;;;;;691.53;652.93;;;17.30;99.90;;;;;;5115595;28;20538;-85
2021/08/08 03:58:30;;;;;;;664.80;627.63;;;17.30;99.90;;;;;;5115218;28;20458;-88
2021/08/08 04:01:01;;;;;;;606.97;572.47;;;17.40;99.90;;;;;;5113349;28;20454;-88
2021/08/08 04:03:28;;;;;;;693.73;654.20;;;17.40;99.90;;;;;;5095311;28;21017;-88
2021/08/08 04:05:55;;;;;;;592.77;560.70;;;17.30;99.90;;;;;;5098030;28;20473;-89
2021/08/08 04:08:22;;;;;;;517.77;489.33;;;17.30;99.90;;;;;;5114871;28;20508;-90
2021/08/08 04:10:48;;;;;;;681.80;641.60;;;17.30;99.90;;;;;;5115973;28;20466;-89
2021/08/08 04:13:15;;;;;;;567.07;536.70;;;17.30;99.90;;;;;;5112258;28;20445;-89
2021/08/08 04:15:42;;;;;;;674.63;635.47;;;17.20;99.90;;;;;;5114734;28;20488;-88
2021/08/08 04:18:12;;;;;;;644.07;608.30;;;17.30;99.90;;;;;;5094225;28;20466;-89
2021/08/08 04:20:39;;;;;;;773.13;728.73;;;17.30;99.90;;;;;;5094308;28;20539;-90
2021/08/08 04:23:07;;;;;;;539.53;510.43;;;17.30;99.90;;;;;;5115132;28;20457;-89
2021/08/08 04:25:33;;;;;;;588.13;556.33;;;17.20;99.90;;;;;;5113931;28;20470;-89
2021/08/08 04:28:01;;;;;;;486.57;460.63;;;17.20;99.90;;;;;;5094519;28;20553;-87
2021/08/08 04:30:27;;;;;;;648.00;612.17;;;17.20;99.90;;;;;;5095076;28;20802;-88
2021/08/08 04:32:54;;;;;;;720.23;678.37;;;17.20;99.90;;;;;;5113242;28;20458;-86
2021/08/08 04:35:23;;;;;;;571.47;538.40;;;17.20;99.90;;;;;;5115875;28;20492;-86
2021/08/08 04:37:50;;;;;;;562.27;531.10;;;17.20;99.90;;;;;;5114850;28;20463;-87
2021/08/08 04:40:16;;;;;;;605.80;571.73;;;17.10;99.90;;;;;;5115422;28;20440;-86
2021/08/08 04:42:43;;;;;;;654.63;616.73;;;17.20;99.90;;;;;;5115044;28;20429;-86
2021/08/08 04:45:11;;;;;;;614.97;579.93;;;17.10;99.90;;;;;;5114244;28;20480;-87
2021/08/08 04:47:37;;;;;;;646.40;609.43;;;17.20;99.90;;;;;;5114720;28;20448;-86
2021/08/08 04:50:07;;;;;;;602.47;569.23;;;17.20;99.90;;;;;;5095512;28;20457;-87
2021/08/08 04:52:37;;;;;;;621.67;587.87;;;17.20;99.90;;;;;;5094240;28;20450;-87
2021/08/08 04:55:04;;;;;;;719.80;676.77;;;17.20;99.90;;;;;;5093770;28;20485;-87
2021/08/08 04:57:31;;;;;;;711.70;670.73;;;17.20;99.90;;;;;;5095424;28;20449;-86
2021/08/08 05:02:44;;;;;;;680.20;641.27;;;17.20;99.90;;;;;;5095727;28;20924;-85
2021/08/08 05:05:12;;;;;;;634.93;599.07;;;17.10;99.90;;;;;;5094133;28;20453;-86
2021/08/08 05:07:41;;;;;;;614.07;578.73;;;17.10;99.90;;;;;;5094100;28;20442;-86
2021/08/08 05:10:09;;;;;;;691.07;651.90;;;17.10;99.90;;;;;;5093362;28;20477;-85
2021/08/08 05:12:36;;;;;;;713.10;671.30;;;17.20;99.90;;;;;;5094200;28;20457;-87
2021/08/08 05:15:03;;;;;;;751.93;707.70;;;17.10;99.90;;;;;;5093663;28;21005;-87
2021/08/08 05:17:31;;;;;;;755.43;710.03;;;17.20;99.90;;;;;;5093364;28;20831;-86
2021/08/08 05:19:58;;;;;;;737.10;694.13;;;17.30;99.90;;;;;;5093932;28;20457;-87
2021/08/08 05:22:24;;;;;;;710.70;668.83;;;17.20;99.90;;;;;;5094021;28;20965;-85
2021/08/08 05:24:53;;;;;;;699.30;658.07;;;17.20;99.90;;;;;;5093382;28;20479;-86
2021/08/08 05:27:20;;;;;;;772.80;727.47;;;17.20;99.90;;;;;;5094160;28;20447;-85
2021/08/08 05:29:46;;;;;;;681.87;643.17;;;17.20;99.90;;;;;;5108292;28;20454;-85
2021/08/08 05:32:13;;;;;;;738.60;695.17;;;17.20;99.90;;;;;;5113676;28;20456;-85
2021/08/08 05:34:40;;;;;;;754.63;709.77;;;17.30;99.90;;;;;;5113441;28;20824;-87
2021/08/08 05:37:07;;;;;;;762.47;718.53;;;17.20;99.90;;;;;;5113214;28;20494;-86
2021/08/08 05:39:34;;;;;;;718.80;675.10;;;17.20;99.90;;;;;;5100149;28;20863;-85
2021/08/08 05:42:02;;;;;;;753.53;708.50;;;17.20;99.90;;;;;;5092882;28;20441;-86
2021/08/08 05:44:29;;;;;;;778.67;732.23;;;17.30;99.90;;;;;;5097831;28;20461;-87
2021/08/08 05:46:56;;;;;;;740.30;695.90;;;17.30;99.90;;;;;;5112117;28;21085;-87
2021/08/08 05:49:22;;;;;;;716.27;673.07;;;17.30;99.90;;;;;;5114100;28;20445;-85
2021/08/08 05:51:49;;;;;;;698.13;658.13;;;17.30;99.90;;;;;;5109638;28;20456;-84
2021/08/08 05:54:16;;;;;;;750.43;705.03;;;17.20;99.90;;;;;;5093497;28;20448;-84
2021/08/08 05:56:43;;;;;;;783.00;733.50;;;17.20;99.90;;;;;;5093721;28;20517;-84
2021/08/08 05:59:11;;;;;;;734.80;692.23;;;17.20;99.90;;;;;;5094863;28;20453;-84
2021/08/08 06:01:38;;;;;;;784.03;735.37;;;17.20;99.90;;;;;;5099629;28;20455;-85
2021/08/08 06:04:05;;;;;;;729.23;685.10;;;17.20;99.90;;;;;;5103560;28;20447;-84
2021/08/08 06:06:33;;;;;;;764.03;715.10;;;17.20;99.90;;;;;;5096655;28;20537;-86
2021/08/08 06:09:00;;;;;;;713.73;672.00;;;17.20;99.90;;;;;;5093274;28;20423;-85
2021/08/08 06:11:26;;;;;;;734.93;691.13;;;17.10;99.90;;;;;;5097768;28;20446;-85
2021/08/08 06:13:53;;;;;;;863.60;811.07;;;17.10;99.90;;;;;;5093866;28;20458;-86
2021/08/08 06:16:22;;;;;;;755.73;707.83;;;17.10;99.90;;;;;;5082086;28;20864;-86
2021/08/08 06:18:48;;;;;;;679.27;638.60;;;17.00;99.90;;;;;;5074223;28;20832;-86
2021/08/08 06:21:16;;;;;;;748.33;704.10;;;17.00;99.90;;;;;;5073995;28;20446;-85
2021/08/08 06:23:43;;;;;;;755.13;710.27;;;17.00;99.90;;;;;;5073740;28;20442;-86
2021/08/08 06:26:09;;;;;;;797.60;749.13;;;17.10;99.90;;;;;;5096793;28;20466;-86
2021/08/08 06:28:37;;;;;;;806.37;757.30;;;17.10;99.90;;;;;;5113531;28;20491;-85
2021/08/08 06:31:03;;;;;;;665.87;627.03;;;17.20;99.90;;;;;;5114532;28;20453;-87
2021/08/08 06:33:32;;;;;;;829.03;777.17;;;17.10;99.90;;;;;;5094780;28;20834;-85
2021/08/08 06:35:59;;;;;;;702.77;661.33;;;17.30;99.90;;;;;;5093939;28;20513;-84
2021/08/08 06:38:25;;;;;;;922.43;856.33;;;17.20;99.90;;;;;;5093579;28;20446;-84
2021/08/08 06:40:52;;;;;;;807.60;757.67;;;17.30;99.90;;;;;;5094822;28;20450;-84
2021/08/08 06:43:19;;;;;;;647.47;610.37;;;17.30;99.90;;;;;;5094759;28;20823;-83
2021/08/08 06:45:46;;;;;;;682.47;642.70;;;17.30;99.90;;;;;;5095067;28;20486;-84
2021/08/08 06:48:13;;;;;;;675.23;636.50;;;17.20;99.90;;;;;;5094635;28;20460;-84
2021/08/08 06:50:41;;;;;;;682.83;643.37;;;17.20;99.90;;;;;;5083316;28;20434;-87
2021/08/08 06:53:08;;;;;;;773.43;727.53;;;17.20;99.90;;;;;;5112836;28;20494;-84
2021/08/08 06:55:35;;;;;;;803.90;754.77;;;17.20;99.90;;;;;;5109382;28;20491;-84
2021/08/08 06:58:01;;;;;;;645.30;607.80;;;17.20;99.90;;;;;;5126276;28;20532;-84
2021/08/08 07:00:28;;;;;;;618.10;583.93;;;17.30;99.90;;;;;;5092067;28;20442;-84
2021/08/08 07:02:55;;;;;;;810.27;762.93;;;17.30;99.90;;;;;;5092286;28;20461;-84
2021/08/08 07:05:22;;;;;;;673.57;635.10;;;17.30;99.90;;;;;;5090770;28;20477;-84
2021/08/08 07:07:50;;;;;;;753.27;706.63;;;17.40;99.90;;;;;;5092101;28;20442;-85
2021/08/08 07:10:17;;;;;;;740.30;696.47;;;17.40;99.90;;;;;;5092600;28;21037;-84
2021/08/08 07:12:44;;;;;;;765.47;720.60;;;17.50;99.90;;;;;;5094102;28;20469;-85
2021/08/08 07:15:11;;;;;;;615.07;580.17;;;17.50;99.90;;;;;;5095426;28;20476;-85
2021/08/08 07:17:38;;;;;;;697.00;655.73;;;17.40;99.90;;;;;;5091229;28;20470;-86
2021/08/08 07:20:06;;;;;;;791.90;745.07;;;17.50;99.90;;;;;;5095088;28;20453;-86
2021/08/08 07:22:33;;;;;;;655.37;618.27;;;17.50;99.90;;;;;;5093767;28;20462;-85
2021/08/08 07:25:01;;;;;;;721.57;679.27;;;17.60;99.90;;;;;;5096350;28;20469;-85
2021/08/08 07:27:28;;;;;;;749.70;706.00;;;17.70;99.90;;;;;;5117284;28;20469;-85
2021/08/08 07:29:55;;;;;;;692.07;653.57;;;17.90;99.90;;;;;;5117660;28;20537;-85
2021/08/08 07:32:22;;;;;;;718.37;677.07;;;18.00;99.90;;;;;;5116969;28;20542;-86
2021/08/08 07:34:49;;;;;;;663.90;625.60;;;18.00;99.90;;;;;;5121253;28;20472;-86
2021/08/08 07:37:16;;;;;;;647.43;610.60;;;18.10;99.90;;;;;;5102075;28;20481;-85
2021/08/08 07:39:43;;;;;;;613.20;579.30;;;18.10;99.90;;;;;;5097207;28;20465;-85
2021/08/08 07:42:11;;;;;;;684.63;644.03;;;18.10;99.90;;;;;;5098431;28;20535;-85
2021/08/08 07:44:37;;;;;;;737.60;693.93;;;18.00;99.90;;;;;;5089970;28;20548;-85
2021/08/08 07:47:04;;;;;;;794.77;747.80;;;18.00;99.90;;;;;;5105976;28;20462;-85
2021/08/08 07:49:31;;;;;;;627.57;592.97;;;18.00;99.90;;;;;;5096980;28;20894;-85
2021/08/08 07:51:58;;;;;;;708.47;666.17;;;18.00;99.90;;;;;;5097060;28;20447;-85
2021/08/08 07:54:25;;;;;;;707.00;666.13;;;17.90;99.90;;;;;;5096645;28;20460;-85
2021/08/08 07:56:52;;;;;;;616.43;582.17;;;17.90;99.90;;;;;;5098937;28;20484;-84
2021/08/08 07:59:20;;;;;;;664.27;626.30;;;17.80;99.90;;;;;;5099267;28;20460;-85
2021/08/08 08:01:47;;;;;;;699.87;660.10;;;17.90;99.90;;;;;;5098217;28;20455;-86
2021/08/08 08:04:14;;;;;;;679.73;640.47;;;17.90;99.90;;;;;;5115251;28;20455;-84
2021/08/08 08:06:41;;;;;;;644.97;607.63;;;18.00;99.90;;;;;;5099879;28;20465;-88
2021/08/08 08:09:07;;;;;;;600.20;567.40;;;18.00;99.90;;;;;;5096499;28;20447;-85
2021/08/08 08:11:34;;;;;;;655.80;619.73;;;17.90;99.90;;;;;;5095595;28;20453;-84
2021/08/08 08:14:01;;;;;;;670.07;632.13;;;18.00;99.90;;;;;;5097274;28;20454;-84
2021/08/08 08:16:29;;;;;;;668.80;628.57;;;18.00;99.90;;;;;;5113617;28;20481;-86
2021/08/08 08:18:56;;;;;;;679.70;638.27;;;18.20;99.90;;;;;;5116444;28;20567;-85
2021/08/08 08:21:23;;;;;;;682.43;642.77;;;18.20;99.90;;;;;;5115508;28;20943;-85
2021/08/08 08:23:50;;;;;;;732.23;688.20;;;18.30;99.90;;;;;;5117055;28;20443;-84
2021/08/08 08:26:17;;;;;;;666.67;628.53;;;18.40;99.90;;;;;;5114722;28;20505;-86
2021/08/08 08:28:43;;;;;;;650.40;613.33;;;18.40;99.90;;;;;;5115602;28;20451;-86
2021/08/08 08:31:11;;;;;;;798.57;751.20;;;18.50;99.90;;;;;;5115228;28;20460;-86
2021/08/08 08:33:39;;;;;;;638.03;602.53;;;18.60;99.90;;;;;;5115505;28;20532;-84
2021/08/08 08:36:06;;;;;;;717.93;674.40;;;18.60;99.90;;;;;;5105010;28;20463;-86
2021/08/08 08:38:33;;;;;;;851.57;795.30;;;18.90;99.90;;;;;;5094050;28;20453;-86
2021/08/08 08:41:04;;;;;;;729.17;687.40;;;19.20;99.90;;;;;;5094685;28;20591;-85
2021/08/08 08:43:32;;;;;;;702.17;661.17;;;19.50;99.90;;;;;;5094338;28;20547;-85
2021/08/08 08:46:00;;;;;;;825.37;773.80;;;19.80;99.90;;;;;;5094848;28;20470;-88
2021/08/08 08:48:29;;;;;;;845.07;791.73;;;19.80;99.90;;;;;;5094280;28;20451;-84
2021/08/08 08:50:59;;;;;;;909.17;849.00;;;19.60;99.90;;;;;;5094007;28;20514;-87
2021/08/08 08:53:25;;;;;;;790.90;740.30;;;19.50;99.90;;;;;;5089566;28;20458;-87
2021/08/08 08:55:55;;;;;;;909.07;850.60;;;19.40;99.90;;;;;;5086973;28;20561;-86
2021/08/08 08:58:22;;;;;;;911.73;853.47;;;19.20;99.90;;;;;;5089587;28;20546;-86
2021/08/08 09:00:49;;;;;;;924.27;863.10;;;18.90;99.90;;;;;;5086877;28;20888;-85
2021/08/08 09:03:16;;;;;;;988.27;921.63;;;18.80;99.90;;;;;;5093669;28;21012;-85
2021/08/08 09:05:43;;;;;;;991.43;923.63;;;19.00;99.90;;;;;;5093363;28;20488;-86
2021/08/08 09:08:11;;;;;;;899.87;840.67;;;19.10;99.90;;;;;;5092185;28;20453;-85
2021/08/08 09:10:39;;;;;;;881.87;826.43;;;19.20;99.90;;;;;;5091214;28;20552;-86
2021/08/08 09:13:07;;;;;;;944.90;881.33;;;19.40;99.90;;;;;;5094424;28;20521;-87
2021/08/08 09:15:35;;;;;;;924.87;866.80;;;19.70;99.90;;;;;;5095850;28;20527;-86
2021/08/08 09:18:13;;;;;;;953.97;888.83;;;19.90;99.90;;;;;;5093042;28;20492;-87
2021/08/08 09:20:43;;;;;;;953.03;890.13;;;20.00;99.90;;;;;;5094228;28;20442;-85
2021/08/08 09:23:11;;;;;;;1015.57;947.73;;;19.80;99.90;;;;;;5097277;28;20958;-86
2021/08/08 09:25:54;;;;;;;1019.23;950.17;;;20.00;99.90;;;;;;5093786;28;20557;-86
2021/08/08 09:31:20;;;;;;;879.50;823.70;;;21.00;99.90;;;;;;5102753;28;20453;-85
2021/08/08 09:33:47;;;;;;;1266.67;893.70;;;21.50;99.90;;;;;;5096582;28;20515;-87
2021/08/08 09:36:14;;;;;;;1999.90;999.90;;;21.50;99.90;;;;;;5094730;28;20997;-86
2021/08/08 09:38:55;;;;;;;1999.90;999.90;;;21.30;99.90;;;;;;5114261;28;20549;-86
2021/08/08 09:41:25;;;;;;;1999.90;999.90;;;20.90;99.90;;;;;;5106520;28;20526;-85
2021/08/08 09:43:52;;;;;;;1999.90;999.90;;;21.00;99.90;;;;;;5102488;28;20442;-87
2021/08/08 09:46:19;;;;;;;1999.90;999.90;;;21.10;99.90;;;;;;5113099;28;20855;-85
2021/08/08 09:48:46;;;;;;;1999.90;999.90;;;21.30;99.90;;;;;;5096354;28;20442;-87
2021/08/08 09:51:13;;;;;;;1999.90;999.90;;;21.50;99.90;;;;;;5093630;28;20446;-87
2021/08/08 09:53:40;;;;;;;1999.90;999.90;;;21.70;99.90;;;;;;5095303;28;20461;-86
2021/08/08 09:56:19;;;;;;;1999.90;999.90;;;22.00;99.90;;;;;;5097821;28;20486;-86
2021/08/08 09:58:48;;;;;;;1999.90;999.90;;;22.30;99.90;;;;;;5100288;28;20480;-83
2021/08/08 10:01:14;;;;;;;1999.90;999.90;;;21.90;99.90;;;;;;5090026;28;21075;-83
2021/08/08 10:03:41;;;;;;;1999.90;999.90;;;21.50;99.90;;;;;;5089463;28;20816;-84
2021/08/08 10:06:11;;;;;;;1999.90;999.90;;;21.70;99.90;;;;;;5087309;28;20469;-84
2021/08/08 10:08:38;;;;;;;1999.90;999.90;;;21.70;99.90;;;;;;5078877;28;20475;-84
2021/08/08 10:11:05;;;;;;;1999.90;999.90;;;21.40;99.90;;;;;;5093065;28;20473;-83
2021/08/08 10:13:43;;;;;;;1999.90;999.90;;;21.60;99.90;;;;;;5093490;28;20454;-84
2021/08/08 10:16:15;;;;;;;1999.90;999.90;;;21.20;99.90;;;;;;5091788;28;20522;-84
2021/08/08 10:18:51;;;;;;;1999.90;999.90;;;21.10;99.90;;;;;;5107053;28;20520;-84
2021/08/08 10:21:18;;;;;;;1999.90;999.90;;;21.20;99.90;;;;;;5092965;28;20540;-84
2021/08/08 10:23:48;;;;;;;1999.90;999.90;;;21.30;99.90;;;;;;5090183;28;20980;-83
2021/08/08 10:26:15;;;;;;;1999.90;999.90;;;21.70;99.90;;;;;;5094505;28;20465;-83
2021/08/08 10:28:44;;;;;;;1999.90;999.90;;;21.60;99.90;;;;;;5094694;28;20526;-84
2021/08/08 10:31:17;;;;;;;1999.90;999.90;;;21.40;99.90;;;;;;5095114;28;20479;-84
2021/08/08 10:33:45;;;;;;;1999.90;999.90;;;21.00;99.90;;;;;;5093965;28;20445;-84
2021/08/08 10:36:20;;;;;;;1999.90;999.90;;;20.90;99.90;;;;;;5095629;28;20466;-84
2021/08/08 10:38:47;;;;;;;1999.90;999.90;;;20.90;99.90;;;;;;5098684;28;20481;-84
2021/08/08 10:41:14;;;;;;;1999.90;999.90;;;21.00;99.90;;;;;;5116024;28;20457;-85
2021/08/08 10:43:44;;;;;;;1999.90;999.90;;;21.30;99.90;;;;;;5106532;28;20450;-84
2021/08/08 10:46:14;;;;;;;1999.90;999.90;;;21.50;99.90;;;;;;5097368;28;20485;-84
2021/08/08 10:48:42;;;;;;;1999.90;999.90;;;21.60;99.90;;;;;;5094326;28;20915;-82
2021/08/08 10:51:21;;;;;;;1999.90;999.90;;;21.50;99.90;;;;;;5095569;28;20443;-83
2021/08/08 10:54:02;;;;;;;1999.90;999.90;;;21.90;99.90;;;;;;5096334;28;20856;-84
2021/08/08 10:56:44;;;;;;;1999.90;999.90;;;21.70;99.90;;;;;;5089230;28;20919;-83
2021/08/08 10:59:15;;;;;;;1999.90;999.90;;;21.20;99.90;;;;;;5097886;28;20489;-84
2021/08/08 11:01:45;;;;;;;1999.90;999.90;;;21.20;99.90;;;;;;5103164;28;20446;-85
2021/08/08 11:04:12;;;;;;;1999.90;999.90;;;21.30;99.90;;;;;;5102204;28;20470;-84
2021/08/08 11:06:42;;;;;;;1999.90;999.90;;;21.50;99.90;;;;;;5103558;28;20544;-84
2021/08/08 11:09:09;;;;;;;1999.90;999.90;;;21.80;99.90;;;;;;5101194;28;20460;-83
2021/08/08 11:11:38;;;;;;;1999.90;999.90;;;22.00;99.90;;;;;;5102080;28;20452;-84
2021/08/08 11:14:11;;;;;;;1999.90;999.90;;;21.90;99.90;;;;;;5092814;28;20447;-84
2021/08/08 11:16:38;;;;;;;1999.90;999.90;;;21.90;99.90;;;;;;5099703;28;20476;-84
2021/08/08 11:19:06;;;;;;;1999.90;999.90;;;22.20;99.90;;;;;;5098813;28;20568;-84
2021/08/08 11:21:33;;;;;;;1999.90;999.90;;;22.30;99.90;;;;;;5102783;28;20457;-84
2021/08/08 11:24:02;;;;;;;1999.90;999.90;;;22.80;99.90;;;;;;5100317;28;20473;-84
2021/08/08 11:26:30;;;;;;;1999.90;999.90;;;22.90;99.90;;;;;;5116061;28;20480;-84
2021/08/08 11:28:59;;;;;;;1999.90;999.90;;;23.20;99.90;;;;;;5103579;28;20513;-84
2021/08/08 11:31:28;;;;;;;1999.90;999.90;;;23.00;99.90;;;;;;5100469;28;20445;-83
2021/08/08 11:34:01;;;;;;;1999.90;999.90;;;22.70;99.90;;;;;;5098611;28;20506;-81
2021/08/08 11:36:35;;;;;;;1999.90;999.90;;;22.30;99.90;;;;;;5101329;28;20999;-83
2021/08/08 11:39:04;;;;;;;1999.90;999.90;;;22.10;99.90;;;;;;5102346;28;20478;-84
2021/08/08 11:41:31;;;;;;;1999.90;999.90;;;22.20;99.90;;;;;;5097612;28;20460;-83
2021/08/08 11:44:03;;;;;;;1999.90;999.90;;;22.60;99.90;;;;;;5101924;28;20460;-83
2021/08/08 11:46:29;;;;;;;1999.90;999.90;;;22.80;99.90;;;;;;5101441;28;20469;-83
2021/08/08 11:48:56;;;;;;;1999.90;999.90;;;22.70;99.90;;;;;;5090444;28;20454;-83
2021/08/08 11:51:23;;;;;;;1999.90;999.90;;;22.40;99.90;;;;;;5111475;28;20445;-81
2021/08/08 11:53:57;;;;;;;1999.90;999.90;;;22.10;99.90;;;;;;5107832;28;20446;-82
2021/08/08 11:56:28;;;;;;;1999.90;999.90;;;21.70;99.90;;;;;;5102373;28;20483;-85
2021/08/08 11:58:57;;;;;;;1999.90;999.90;;;21.40;99.90;;;;;;5102564;28;20845;-81
2021/08/08 12:01:25;;;;;;;1999.90;999.90;;;21.10;99.90;;;;;;5101211;28;20458;-82
2021/08/08 12:03:53;;;;;;;1999.90;999.90;;;21.10;99.90;;;;;;5100969;28;20843;-82
2021/08/08 12:06:21;;;;;;;1999.90;999.90;;;21.10;99.90;;;;;;5100860;28;20494;-82
2021/08/08 12:08:50;;;;;;;1999.90;999.90;;;21.20;99.90;;;;;;5122831;28;20461;-82
2021/08/08 12:11:26;;;;;;;1999.90;999.90;;;21.10;99.90;;;;;;5109076;28;20453;-81
2021/08/08 12:14:07;;;;;;;1999.90;999.90;;;21.10;99.90;;;;;;5103347;28;20454;-82
2021/08/08 12:16:36;;;;;;;1999.90;999.90;;;21.00;99.90;;;;;;5095590;28;21001;-81